createdAt,value
2018-07-30T00:01:35.009Z,100023.27
2018-07-30T00:04:02.009Z,100028.88
2018-07-30T00:06:32.296Z,100026.05
2018-07-30T00:09:02.352Z,100025.06
2018-07-30T00:11:31.991Z,100015.77
2018-07-30T00:14:03.156Z,100018.02
2018-07-30T00:16:30.211Z,100026.77
2018-07-30T00:19:03.647Z,100031.77
2018-07-30T00:21:36.748Z,100039.49
2018-07-30T00:24:06.870Z,100041.62
2018-07-30T00:26:37.002Z,100045.83
2018-07-30T00:29:04.038Z,100048.36
2018-07-30T00:31:32.387Z,100055.07
2018-07-30T00:33:59.421Z,100053.75
2018-07-30T00:36:27.507Z,100053.34
2018-07-30T00:38:56.496Z,100054.59
2018-07-30T00:41:26.810Z,100053.78
2018-07-30T00:43:55.558Z,100050.73
2018-07-30T00:46:24.585Z,100047.98
2018-07-30T00:48:58.986Z,100057.03
2018-07-30T00:51:27.055Z,100054.50
2018-07-30T00:53:55.143Z,100058.59
2018-07-30T00:56:23.242Z,100064.77
2018-07-30T00:58:54.125Z,100066.30
2018-07-30T01:01:21.176Z,100064.04
2018-07-30T01:03:48.384Z,100059.14
2018-07-30T01:06:16.133Z,100062.83
2018-07-30T01:08:43.266Z,100057.30
2018-07-30T01:11:13.280Z,100061.58
2018-07-30T01:13:46.495Z,100054.28
2018-07-30T01:16:14.551Z,100058.23
2018-07-30T01:18:42.539Z,100058.75
2018-07-30T01:21:09.604Z,100072.13
2018-07-30T01:23:38.602Z,100071.02
2018-07-30T01:26:13.239Z,100074.67
2018-07-30T01:28:41.084Z,100080.25
2018-07-30T01:31:08.166Z,100081.66
2018-07-30T01:33:38.363Z,100086.62
2018-07-30T01:36:08.547Z,100083.69
2018-07-30T01:38:36.528Z,100088.34
2018-07-30T01:41:03.643Z,100090.48
2018-07-30T01:43:32.051Z,100086.71
2018-07-30T01:45:59.084Z,100089.66
2018-07-30T01:48:26.220Z,100088.55
2018-07-30T01:50:56.376Z,100090.78
2018-07-30T01:53:24.114Z,100088.44
2018-07-30T01:55:51.159Z,100090.88
2018-07-30T01:58:21.175Z,100089.87
2018-07-30T02:00:51.411Z,100089.15
2018-07-30T02:03:19.108Z,100094.83
2018-07-30T02:05:53.347Z,100094.33
2018-07-30T02:08:20.515Z,100093.91
2018-07-30T02:10:58.607Z,100091.48
2018-07-30T02:13:26.627Z,100098.37
2018-07-30T02:15:54.599Z,100096.36
2018-07-30T02:18:22.474Z,100100.02
2018-07-30T02:20:52.616Z,100096.38
2018-07-30T02:23:24.265Z,100101.83
2018-07-30T02:25:53.075Z,100105.77
2018-07-30T02:28:23.091Z,100106.72
2018-07-30T02:30:54.160Z,100110.38
2018-07-30T02:33:27.469Z,100109.97
2018-07-30T02:35:54.656Z,100102.18
2018-07-30T02:38:23.623Z,100103.94
2018-07-30T02:40:50.700Z,100104.31
2018-07-30T02:43:17.868Z,100101.42
2018-07-30T02:45:55.273Z,100107.99
2018-07-30T02:48:25.515Z,100107.75
2018-07-30T02:50:57.871Z,100105.34
2018-07-30T02:53:29.355Z,100111.45
2018-07-30T02:55:58.140Z,100104.20
2018-07-30T02:58:31.361Z,100105.21
2018-07-30T03:00:59.409Z,100105.77
2018-07-30T03:03:30.473Z,100112.96
2018-07-30T03:05:58.152Z,100117.88
2018-07-30T03:08:30.479Z,100110.80
2018-07-30T03:11:00.547Z,100114.25
2018-07-30T03:13:28.656Z,100115.97
2018-07-30T03:15:55.810Z,100117.30
2018-07-30T03:18:22.967Z,100123.47
2018-07-30T03:20:53.455Z,100124.56
2018-07-30T03:23:23.647Z,100129.83
2018-07-30T03:25:51.515Z,100122.67
2018-07-30T03:28:20.586Z,100123.27
2018-07-30T03:30:53.633Z,100132.77
2018-07-30T03:33:20.667Z,100130.34
2018-07-30T03:35:47.899Z,100130.22
2018-07-30T03:38:15.021Z,100126.93
2018-07-30T03:40:42.203Z,100128.81
2018-07-30T03:43:09.339Z,100134.66
2018-07-30T03:45:36.416Z,100127.98
2018-07-30T03:48:09.530Z,100138.30
2018-07-30T03:50:36.689Z,100144.01
2018-07-30T03:53:03.859Z,100142.80
2018-07-30T03:55:32.926Z,100137.67
2018-07-30T03:58:00.538Z,100139.48
2018-07-30T04:00:27.663Z,100133.55
2018-07-30T04:02:54.724Z,100133.62
2018-07-30T04:05:22.612Z,100138.80
2018-07-30T04:07:49.812Z,100135.98
2018-07-30T04:10:17.716Z,100138.40
2018-07-30T04:12:45.651Z,100136.39
2018-07-30T04:15:13.532Z,100138.81
2018-07-30T04:17:41.704Z,100145.30
2018-07-30T04:20:08.883Z,100152.58
2018-07-30T04:22:36.027Z,100152.22
2018-07-30T04:25:03.507Z,100151.59
2018-07-30T04:27:30.656Z,100153.59
2018-07-30T04:29:57.843Z,100157.27
2018-07-30T04:32:25.607Z,100146.74
2018-07-30T04:34:53.674Z,100151.11
2018-07-30T04:37:21.699Z,100149.27
2018-07-30T04:39:50.583Z,100147.09
2018-07-30T04:42:18.569Z,100143.20
2018-07-30T04:44:47.551Z,100148.52
2018-07-30T04:47:16.547Z,100146.88
2018-07-30T04:49:44.660Z,100144.08
2018-07-30T04:52:12.857Z,100147.44
2018-07-30T04:54:40.028Z,100149.33
2018-07-30T04:57:08.697Z,100147.70
2018-07-30T04:59:36.812Z,100149.55
2018-07-30T05:02:05.712Z,100148.52
2018-07-30T05:04:32.819Z,100149.77
2018-07-30T05:07:01.728Z,100155.39
2018-07-30T05:09:28.794Z,100157.25
2018-07-30T05:11:55.960Z,100158.72
2018-07-30T05:14:23.628Z,100168.50
2018-07-30T05:16:52.739Z,100171.25
2018-07-30T05:19:19.928Z,100168.50
2018-07-30T05:21:47.675Z,100169.86
2018-07-30T05:24:15.558Z,100162.50
2018-07-30T05:26:43.235Z,100167.88
2018-07-30T05:29:10.404Z,100168.64
2018-07-30T05:31:37.625Z,100164.97
2018-07-30T05:34:05.767Z,100161.26
2018-07-30T05:36:32.915Z,100162.70
2018-07-30T05:39:06.496Z,100164.88
2018-07-30T05:41:33.607Z,100165.36
2018-07-30T05:44:00.755Z,100167.88
2018-07-30T05:46:29.664Z,100164.77
2018-07-30T05:48:56.721Z,100161.75
2018-07-30T05:51:23.924Z,100163.42
2018-07-30T05:53:54.099Z,100169.86
2018-07-30T05:56:21.264Z,100158.45
2018-07-30T05:58:49.407Z,100164.81
2018-07-30T06:01:16.562Z,100170.53
2018-07-30T06:03:43.718Z,100167.80
2018-07-30T06:06:10.985Z,100176.86
2018-07-30T06:08:39.056Z,100176.31
2018-07-30T06:11:06.251Z,100178.95
2018-07-30T06:13:33.359Z,100184.69
2018-07-30T06:16:00.507Z,100183.19
2018-07-30T06:18:27.639Z,100187.81
2018-07-30T06:20:54.789Z,100186.95
2018-07-30T06:23:22.012Z,100186.42
2018-07-30T06:25:50.777Z,100185.66
2018-07-30T06:28:17.876Z,100186.63
2018-07-30T06:30:45.032Z,100186.52
2018-07-30T06:33:12.703Z,100190.15
2018-07-30T06:35:39.964Z,100193.57
2018-07-30T06:38:07.115Z,100197.55
2018-07-30T06:40:34.175Z,100195.69
2018-07-30T06:43:01.370Z,100192.27
2018-07-30T06:45:29.219Z,100198.61
2018-07-30T06:47:56.479Z,100196.30
2018-07-30T06:50:23.458Z,100205.17
2018-07-30T06:52:50.611Z,100198.11
2018-07-30T06:55:17.775Z,100200.89
2018-07-30T06:57:44.935Z,100205.09
2018-07-30T07:00:12.089Z,100192.43
2018-07-30T07:02:39.871Z,100198.69
2018-07-30T07:05:09.118Z,100209.06
2018-07-30T07:07:36.231Z,100194.85
2018-07-30T07:10:06.321Z,100203.86
2018-07-30T07:12:33.364Z,100203.84
2018-07-30T07:15:08.727Z,100202.78
2018-07-30T07:17:49.679Z,100204.05
2018-07-30T07:20:16.850Z,100206.45
2018-07-30T07:22:44.009Z,100204.13
2018-07-30T07:25:12.807Z,100206.55
2018-07-30T07:27:39.964Z,100203.33
2018-07-30T07:30:07.672Z,100209.56
2018-07-30T07:32:35.850Z,100208.48
2018-07-30T07:35:02.969Z,100208.48
2018-07-30T07:37:30.044Z,100214.67
2018-07-30T07:39:57.319Z,100216.01
2018-07-30T07:42:26.392Z,100212.33
2018-07-30T07:44:53.518Z,100210.16
2018-07-30T07:47:21.260Z,100211.78
2018-07-30T07:49:48.436Z,100216.33
2018-07-30T07:52:16.517Z,100215.53
2018-07-30T07:54:44.287Z,100218.21
2018-07-30T07:57:11.411Z,100216.33
2018-07-30T07:59:38.507Z,100221.09
2018-07-30T08:02:07.236Z,100226.38
2018-07-30T08:04:35.292Z,100226.13
2018-07-30T08:07:03.217Z,100222.91
2018-07-30T08:09:30.507Z,100226.13
2018-07-30T08:11:57.523Z,100220.35
2018-07-30T08:14:26.312Z,100224.91
2018-07-30T08:16:54.275Z,100231.81
2018-07-30T08:19:21.428Z,100229.72
2018-07-30T08:21:49.364Z,100233.48
2018-07-30T08:24:17.294Z,100228.83
2018-07-30T08:26:44.452Z,100225.99
2018-07-30T08:29:20.319Z,100218.41
2018-07-30T08:31:51.887Z,100224.69
2018-07-30T08:34:23.851Z,100219.64
2018-07-30T08:36:51.026Z,100224.83
2018-07-30T08:39:18.195Z,100222.12
2018-07-30T08:41:45.356Z,100217.60
2018-07-30T08:44:14.391Z,100224.35
2018-07-30T08:46:42.355Z,100222.41
2018-07-30T08:49:09.520Z,100218.54
2018-07-30T08:51:41.494Z,100212.20
2018-07-30T08:54:10.396Z,100212.20
2018-07-30T08:56:39.296Z,100217.45
2018-07-30T08:59:07.388Z,100221.11
2018-07-30T09:01:34.519Z,100214.66
2018-07-30T09:04:02.315Z,100217.02
2018-07-30T09:06:29.458Z,100209.14
2018-07-30T09:08:56.634Z,100207.40
2018-07-30T09:11:23.808Z,100203.88
2018-07-30T09:13:50.975Z,100205.23
2018-07-30T09:16:18.297Z,100199.36
2018-07-30T09:18:48.977Z,100197.92
2018-07-30T09:21:16.864Z,100187.05
2018-07-30T09:23:50.150Z,100195.84
2018-07-30T09:26:17.319Z,100194.25
2018-07-30T09:28:44.526Z,100199.64
2018-07-30T09:31:11.682Z,100195.27
2018-07-30T09:33:38.723Z,100198.73
2018-07-30T09:36:06.144Z,100202.92
2018-07-30T09:38:33.339Z,100199.27
2018-07-30T09:41:00.516Z,100195.34
2018-07-30T09:43:30.615Z,100195.83
2018-07-30T09:45:57.791Z,100195.05
2018-07-30T09:48:24.968Z,100197.33
2018-07-30T09:50:52.194Z,100188.70
2018-07-30T09:53:19.376Z,100183.98
2018-07-30T09:55:46.588Z,100190.51
2018-07-30T09:58:14.416Z,100193.48
2018-07-30T10:00:47.371Z,100187.72
2018-07-30T10:03:15.475Z,100184.49
2018-07-30T10:05:42.711Z,100170.39
2018-07-30T10:08:11.799Z,100171.92
2018-07-30T10:10:39.875Z,100181.68
2018-07-30T10:13:07.037Z,100172.70
2018-07-30T10:15:34.909Z,100170.97
2018-07-30T10:18:02.212Z,100170.05
2018-07-30T10:20:29.323Z,100182.76
2018-07-30T10:22:56.513Z,100176.86
2018-07-30T10:25:23.667Z,100173.45
2018-07-30T10:27:51.339Z,100174.68
2018-07-30T10:30:18.506Z,100164.72
2018-07-30T10:32:45.672Z,100176.14
2018-07-30T10:35:12.832Z,100174.34
2018-07-30T10:37:41.008Z,100173.36
2018-07-30T10:40:08.204Z,100168.72
2018-07-30T10:42:35.277Z,100157.18
2018-07-30T10:45:02.380Z,100156.70
2018-07-30T10:47:30.318Z,100162.25
2018-07-30T10:49:57.334Z,100159.00
2018-07-30T10:52:24.345Z,100164.25
2018-07-30T10:54:51.620Z,100157.56
2018-07-30T10:57:18.666Z,100154.86
2018-07-30T10:59:45.732Z,100160.13
2018-07-30T11:02:12.760Z,100163.06
2018-07-30T11:04:42.024Z,100153.17
2018-07-30T11:07:09.201Z,100156.61
2018-07-30T11:09:36.417Z,100152.86
2018-07-30T11:12:03.438Z,100145.72
2018-07-30T11:14:30.684Z,100148.93
2018-07-30T11:16:57.963Z,100147.55
2018-07-30T11:19:25.024Z,100144.64
2018-07-30T11:21:52.046Z,100147.59
2018-07-30T11:24:19.140Z,100137.21
2018-07-30T11:26:46.226Z,100138.37
2018-07-30T11:29:13.224Z,100135.08
2018-07-30T11:31:40.285Z,100128.74
2018-07-30T11:34:07.327Z,100124.44
2018-07-30T11:36:34.400Z,100124.48
2018-07-30T11:39:01.410Z,100123.55
2018-07-30T11:41:31.541Z,100118.58
2018-07-30T11:43:58.593Z,100114.48
2018-07-30T11:46:25.678Z,100114.26
2018-07-30T11:48:52.688Z,100099.73
2018-07-30T11:51:19.724Z,100103.79
2018-07-30T11:53:47.483Z,100101.61
2018-07-30T11:56:14.909Z,100101.19
2018-07-30T11:58:41.914Z,100097.34
2018-07-30T12:01:09.042Z,100098.05
2018-07-30T12:03:36.165Z,100098.88
2018-07-30T12:06:03.279Z,100098.80
2018-07-30T12:08:30.361Z,100095.03
2018-07-30T12:10:57.422Z,100090.49
2018-07-30T12:13:24.546Z,100097.81
2018-07-30T12:15:51.692Z,100087.41
2018-07-30T12:18:18.844Z,100089.62
2018-07-30T12:20:45.977Z,100089.95
2018-07-30T12:23:14.765Z,100078.55
2018-07-30T12:25:42.463Z,100091.03
2018-07-30T12:28:09.493Z,100082.64
2018-07-30T12:30:36.726Z,100076.09
2018-07-30T12:33:03.702Z,100079.12
2018-07-30T12:35:31.082Z,100068.50
2018-07-30T12:37:58.182Z,100086.84
2018-07-30T12:40:25.225Z,100069.02
2018-07-30T12:42:52.393Z,100075.27
2018-07-30T12:45:39.016Z,100067.64
2018-07-30T12:48:06.245Z,100064.25
2018-07-30T12:50:33.602Z,100074.86
2018-07-30T12:53:00.700Z,100067.51
2018-07-30T12:55:27.798Z,100067.37
2018-07-30T12:57:54.796Z,100059.78
2018-07-30T13:00:21.846Z,100067.50
2018-07-30T13:02:48.959Z,100056.23
2018-07-30T13:05:15.945Z,100055.80
2018-07-30T13:07:42.965Z,100063.13
2018-07-30T13:10:10.330Z,100061.27
2018-07-30T13:12:37.394Z,100052.23
2018-07-30T13:15:04.525Z,100050.68
2018-07-30T13:17:32.633Z,100058.71
2018-07-30T13:19:59.877Z,100048.89
2018-07-30T13:22:27.000Z,100040.46
2018-07-30T13:24:54.032Z,100037.84
2018-07-30T13:27:21.147Z,100038.06
2018-07-30T13:29:48.146Z,100035.02
2018-07-30T13:32:15.431Z,100034.18
2018-07-30T13:34:42.501Z,100027.73
2018-07-30T13:37:09.504Z,100024.63
2018-07-30T13:39:36.585Z,100023.41
2018-07-30T13:42:03.720Z,100021.33
2018-07-30T13:44:30.760Z,100021.05
2018-07-30T13:46:57.887Z,100012.29
2018-07-30T13:49:25.861Z,100018.91
2018-07-30T13:51:53.051Z,100015.55
2018-07-30T13:54:20.349Z,100013.94
2018-07-30T13:56:47.531Z,100006.46
2018-07-30T13:59:14.639Z,100006.70
2018-07-30T14:01:42.706Z,100010.05
2018-07-30T14:04:09.779Z,100010.58
2018-07-30T14:06:36.993Z,100009.81
2018-07-30T14:09:07.419Z,100005.09
2018-07-30T14:11:34.588Z,100012.26
2018-07-30T14:14:01.676Z,100003.17
2018-07-30T14:16:28.898Z,100002.75
2018-07-30T14:18:56.039Z,100003.77
2018-07-30T14:21:23.236Z,100009.74
2018-07-30T14:23:51.999Z,100003.05
2018-07-30T14:26:19.064Z,100002.28
2018-07-30T14:28:46.235Z,100003.91
2018-07-30T14:31:13.375Z,100000.67
2018-07-30T14:33:40.565Z,99998.52
2018-07-30T14:36:07.656Z,100000.94
2018-07-30T14:38:35.636Z,99990.05
2018-07-30T14:41:02.816Z,99992.56
2018-07-30T14:43:30.036Z,99991.78
2018-07-30T14:45:57.168Z,99995.56
2018-07-30T14:48:24.231Z,99989.19
2018-07-30T14:50:51.383Z,99986.30
2018-07-30T14:53:18.572Z,99984.38
2018-07-30T14:55:46.541Z,99986.34
2018-07-30T14:58:13.611Z,99985.24
2018-07-30T15:00:42.622Z,99984.98
2018-07-30T15:03:09.783Z,99983.64
2018-07-30T15:05:36.859Z,99978.83
2018-07-30T15:08:04.227Z,99985.83
2018-07-30T15:10:31.291Z,99973.16
2018-07-30T15:12:58.402Z,99980.25
2018-07-30T15:15:25.632Z,99972.45
2018-07-30T15:17:52.759Z,99971.48
2018-07-30T15:20:19.815Z,99973.82
2018-07-30T15:22:48.434Z,99966.98
2018-07-30T15:25:15.411Z,99971.41
2018-07-30T15:27:42.377Z,99969.28
2018-07-30T15:30:09.264Z,99969.91
2018-07-30T15:32:36.286Z,99970.09
2018-07-30T15:35:05.019Z,99968.20
2018-07-30T15:37:32.357Z,99969.27
2018-07-30T15:39:59.263Z,99964.95
2018-07-30T15:42:26.963Z,99957.14
2018-07-30T15:44:53.921Z,99971.83
2018-07-30T15:47:20.871Z,99974.78
2018-07-30T15:49:47.788Z,99974.66
2018-07-30T15:52:14.812Z,99969.99
2018-07-30T15:54:41.757Z,99971.86
2018-07-30T15:57:08.802Z,99966.08
2018-07-30T15:59:35.801Z,99968.39
2018-07-30T16:02:02.824Z,99966.36
2018-07-30T16:04:34.231Z,99967.86
2018-07-30T16:07:01.263Z,99971.60
2018-07-30T16:09:28.207Z,99965.70
2018-07-30T16:11:55.108Z,99967.95
2018-07-30T16:14:22.112Z,99969.70
2018-07-30T16:16:49.903Z,99965.95
2018-07-30T16:19:17.468Z,99976.44
2018-07-30T16:21:44.428Z,99962.03
2018-07-30T16:24:11.384Z,99960.56
2018-07-30T16:26:38.347Z,99952.09
2018-07-30T16:29:05.333Z,99952.75
2018-07-30T16:31:32.381Z,99947.17
2018-07-30T16:33:59.891Z,99944.12
2018-07-30T16:36:26.882Z,99948.27
2018-07-30T16:38:53.839Z,99948.69
2018-07-30T16:41:20.840Z,99946.54
2018-07-30T16:43:47.816Z,99946.56
2018-07-30T16:46:14.811Z,99940.22
2018-07-30T16:48:41.790Z,99934.64
2018-07-30T16:51:08.736Z,99938.55
2018-07-30T16:53:35.689Z,99938.58
2018-07-30T16:56:02.659Z,99938.82
2018-07-30T16:58:29.595Z,99931.63
2018-07-30T17:00:56.545Z,99942.47
2018-07-30T17:03:23.504Z,99950.06
2018-07-30T17:05:50.434Z,99946.45
2018-07-30T17:08:17.435Z,99943.48
2018-07-30T17:10:44.380Z,99944.75
2018-07-30T17:13:11.332Z,99953.39
2018-07-30T17:15:39.000Z,99952.83
2018-07-30T17:18:06.508Z,99948.45
2018-07-30T17:20:33.480Z,99946.41
2018-07-30T17:23:00.411Z,99949.60
2018-07-30T17:25:27.366Z,99953.51
2018-07-30T17:27:54.307Z,99948.61
2018-07-30T17:30:25.152Z,99950.59
2018-07-30T17:32:53.953Z,99949.41
2018-07-30T17:35:20.919Z,99946.33
2018-07-30T17:37:47.856Z,99951.24
2018-07-30T17:40:14.848Z,99949.41
2018-07-30T17:42:41.798Z,99951.98
2018-07-30T17:45:11.028Z,99954.34
2018-07-30T17:47:37.995Z,99953.58
2018-07-30T17:50:05.336Z,99962.55
2018-07-30T17:52:32.296Z,99957.88
2018-07-30T17:55:00.261Z,99961.20
2018-07-30T17:57:27.505Z,99959.27
2018-07-30T17:59:54.459Z,99966.39
2018-07-30T18:02:21.446Z,99958.95
2018-07-30T18:04:48.406Z,99967.77
2018-07-30T18:07:15.443Z,99968.95
2018-07-30T18:09:42.442Z,99966.42
2018-07-30T18:12:09.432Z,99970.86
2018-07-30T18:14:36.569Z,99975.69
2018-07-30T18:17:04.583Z,99970.73
2018-07-30T18:19:31.629Z,99969.81
2018-07-30T18:21:58.622Z,99972.08
2018-07-30T18:24:25.687Z,99975.42
2018-07-30T18:26:52.731Z,99980.62
2018-07-30T18:29:20.581Z,99988.42
2018-07-30T18:31:47.872Z,99985.12
2018-07-30T18:34:15.480Z,99993.45
2018-07-30T18:36:42.439Z,99987.99
2018-07-30T18:39:09.388Z,99991.48
2018-07-30T18:41:36.351Z,99997.11
2018-07-30T18:44:04.347Z,99999.68
2018-07-30T18:46:33.337Z,99995.70
2018-07-30T18:49:00.322Z,99998.72
2018-07-30T18:51:28.091Z,100004.53
2018-07-30T18:53:55.049Z,100008.88
2018-07-30T18:56:22.000Z,100007.58
2018-07-30T18:58:49.960Z,100006.08
2018-07-30T19:01:21.647Z,100011.71
2018-07-30T19:03:49.501Z,100014.28
2018-07-30T19:06:20.072Z,100020.32
2018-07-30T19:08:47.051Z,100021.92
2018-07-30T19:11:16.014Z,100025.06
2018-07-30T19:13:43.552Z,100031.38
2018-07-30T19:16:10.562Z,100033.05
2018-07-30T19:18:37.479Z,100024.23
2018-07-30T19:21:05.395Z,100030.44
2018-07-30T19:23:32.345Z,100027.81
2018-07-30T19:25:59.319Z,100038.36
2018-07-30T19:28:33.739Z,100035.77
2018-07-30T19:31:01.537Z,100038.78
2018-07-30T19:33:28.475Z,100036.31
2018-07-30T19:35:55.399Z,100044.20
2018-07-30T19:38:24.063Z,100044.06
2018-07-30T19:40:51.086Z,100049.66
2018-07-30T19:43:18.051Z,100047.44
2018-07-30T19:45:46.044Z,100054.80
2018-07-30T19:48:13.991Z,100048.38
2018-07-30T19:50:44.544Z,100047.19
2018-07-30T19:53:12.528Z,100053.73
2018-07-30T19:55:39.607Z,100052.41
2018-07-30T19:58:06.784Z,100058.64
2018-07-30T20:00:34.795Z,100056.34
2018-07-30T20:03:01.798Z,100058.92
2018-07-30T20:05:28.736Z,100062.41
2018-07-30T20:07:55.735Z,100066.94
2018-07-30T20:10:22.656Z,100064.42
2018-07-30T20:12:51.662Z,100071.07
2018-07-30T20:15:20.559Z,100067.87
2018-07-30T20:17:47.530Z,100064.80
2018-07-30T20:20:22.461Z,100064.89
2018-07-30T20:22:52.393Z,100075.16
2018-07-30T20:25:22.336Z,100070.33
2018-07-30T20:27:52.360Z,100066.61
2018-07-30T20:30:20.128Z,100074.73
2018-07-30T20:32:47.099Z,100077.80
2018-07-30T20:35:14.047Z,100064.85
2018-07-30T20:37:41.552Z,100072.66
2018-07-30T20:40:10.154Z,100074.16
2018-07-30T20:42:37.179Z,100074.29
2018-07-30T20:45:04.193Z,100073.45
2018-07-30T20:47:31.209Z,100076.73
2018-07-30T20:49:59.076Z,100070.53
2018-07-30T20:52:26.612Z,100080.14
2018-07-30T20:54:54.779Z,100076.77
2018-07-30T20:57:22.659Z,100072.81
2018-07-30T20:59:51.628Z,100070.89
2018-07-30T21:02:18.609Z,100073.24
2018-07-30T21:04:46.658Z,100079.02
2018-07-30T21:07:13.620Z,100079.72
2018-07-30T21:09:40.559Z,100077.69
2018-07-30T21:12:07.520Z,100079.60
2018-07-30T21:14:34.534Z,100079.41
2018-07-30T21:17:05.542Z,100080.38
2018-07-30T21:19:33.139Z,100077.66
2018-07-30T21:22:00.636Z,100082.27
2018-07-30T21:24:30.327Z,100080.41
2018-07-30T21:27:03.513Z,100082.62
2018-07-30T21:29:30.494Z,100084.45
2018-07-30T21:31:59.171Z,100081.89
2018-07-30T21:34:29.922Z,100087.76
2018-07-30T21:36:57.675Z,100086.91
2018-07-30T21:39:27.757Z,100087.13
2018-07-30T21:41:54.713Z,100087.06
2018-07-30T21:44:21.632Z,100083.39
2018-07-30T21:46:48.589Z,100082.00
2018-07-30T21:49:18.517Z,100079.06
2018-07-30T21:51:50.184Z,100081.98
2018-07-30T21:54:17.143Z,100087.06
2018-07-30T21:56:45.639Z,100079.52
2018-07-30T21:59:15.562Z,100080.77
2018-07-30T22:01:42.503Z,100076.15
2018-07-30T22:04:12.446Z,100077.36
2018-07-30T22:06:39.408Z,100073.05
2018-07-30T22:11:38.196Z,100076.80
2018-07-30T22:14:05.380Z,100079.53
2018-07-30T22:16:32.277Z,100081.36
2018-07-30T22:18:59.200Z,100079.24
2018-07-30T22:21:26.092Z,100078.59
2018-07-30T22:23:52.991Z,100091.52
2018-07-30T22:26:19.900Z,100088.17
2018-07-30T22:28:46.791Z,100095.19
2018-07-30T22:31:13.702Z,100096.05
2018-07-30T22:33:40.591Z,100096.38
2018-07-30T22:36:07.538Z,100100.97
2018-07-30T22:38:34.437Z,100095.44
2018-07-30T22:41:01.345Z,100093.77
2018-07-30T22:43:28.260Z,100098.86
2018-07-30T22:45:55.159Z,100101.36
2018-07-30T22:48:22.519Z,100098.80
2018-07-30T22:50:49.428Z,100100.03
2018-07-30T22:53:16.312Z,100101.06
2018-07-30T22:55:43.208Z,100098.53
2018-07-30T22:58:10.111Z,100106.48
2018-07-30T23:00:37.024Z,100098.96
2018-07-30T23:03:03.910Z,100111.11
2018-07-30T23:05:30.856Z,100106.33
2018-07-30T23:07:58.961Z,100108.91
2018-07-30T23:10:25.852Z,100104.58
2018-07-30T23:12:52.778Z,100094.85
2018-07-30T23:15:19.676Z,100097.73
2018-07-30T23:17:46.617Z,100090.52
2018-07-30T23:20:13.856Z,100097.78
2018-07-30T23:22:40.812Z,100095.14
2018-07-30T23:25:07.869Z,100095.83
2018-07-30T23:27:35.006Z,100094.47
2018-07-30T23:30:01.924Z,100091.69
2018-07-30T23:32:28.824Z,100093.83
2018-07-30T23:34:55.746Z,100098.23
2018-07-30T23:37:22.863Z,100095.00
2018-07-30T23:39:49.621Z,100094.14
2018-07-30T23:42:16.602Z,100093.67
2018-07-30T23:44:43.507Z,100096.69
2018-07-30T23:47:10.435Z,100095.22
2018-07-30T23:49:37.500Z,100104.63
2018-07-30T23:52:04.428Z,100095.63
2018-07-30T23:54:31.352Z,100091.28
2018-07-30T23:56:58.284Z,100093.70
2018-07-30T23:59:25.198Z,100089.92
